createdAt,value
2022-09-24T00:01:38.940Z,3.92
2022-09-24T00:04:09.803Z,6.28
2022-09-24T00:06:48.058Z,4.70
2022-09-24T00:09:19.486Z,8.32
2022-09-24T00:11:46.593Z,9.88
2022-09-24T00:14:14.174Z,13.93
2022-09-24T00:16:43.730Z,11.27
2022-09-24T00:19:14.004Z,6.40
2022-09-24T00:21:42.377Z,5.70
2022-09-24T00:24:37.045Z,4.47
2022-09-24T00:27:06.021Z,9.77
2022-09-24T00:29:34.177Z,6.68
2022-09-24T00:32:03.066Z,6.30
2022-09-24T00:34:30.359Z,7.40
2022-09-24T00:36:57.356Z,8.68
2022-09-24T00:39:24.317Z,9.00
2022-09-24T00:41:51.402Z,14.82
2022-09-24T00:44:55.945Z,14.85
2022-09-24T00:47:37.376Z,21.88
2022-09-24T00:50:17.555Z,16.38
2022-09-24T00:52:54.899Z,10.07
2022-09-24T00:55:24.687Z,6.68
2022-09-24T00:57:57.571Z,6.82
2022-09-24T01:00:25.157Z,8.55
2022-09-24T01:03:00.815Z,8.27
2022-09-24T01:05:28.615Z,13.25
2022-09-24T01:07:55.708Z,11.85
2022-09-24T01:10:48.856Z,8.98
2022-09-24T01:13:43.300Z,10.18
2022-09-24T01:16:29.966Z,13.63
2022-09-24T01:19:23.972Z,10.70
2022-09-24T01:21:57.745Z,8.60
2022-09-24T01:24:43.443Z,10.15
2022-09-24T01:27:39.239Z,11.60
2022-09-24T01:30:12.041Z,14.77
2022-09-24T01:32:54.168Z,12.65
2022-09-24T01:35:34.797Z,11.60
2022-09-24T01:38:13.832Z,13.10
2022-09-24T01:40:42.488Z,12.48
2022-09-24T01:43:11.870Z,8.20
2022-09-24T01:45:39.980Z,10.82
2022-09-24T01:48:07.509Z,7.05
2022-09-24T01:50:52.023Z,10.25
2022-09-24T01:53:30.797Z,12.60
2022-09-24T01:56:09.542Z,7.13
2022-09-24T01:58:53.098Z,9.68
2022-09-24T02:01:48.483Z,4.88
2022-09-24T02:04:19.389Z,7.10
2022-09-24T02:07:13.400Z,4.97
2022-09-24T02:09:43.240Z,7.20
2022-09-24T02:12:29.847Z,6.47
2022-09-24T02:15:12.827Z,5.93
2022-09-24T02:17:44.930Z,7.13
2022-09-24T02:22:50.072Z,6.55
2022-09-24T02:25:23.310Z,6.53
2022-09-24T02:27:50.469Z,7.55
2022-09-24T02:30:17.908Z,6.47
2022-09-24T02:32:45.049Z,4.75
2022-09-24T02:35:12.927Z,6.90
2022-09-24T02:37:43.593Z,6.68
2022-09-24T02:40:14.074Z,5.95
2022-09-24T02:42:42.347Z,7.45
2022-09-24T02:45:11.253Z,4.78
2022-09-24T02:47:38.895Z,6.85
2022-09-24T02:50:06.921Z,7.55
2022-09-24T02:52:34.207Z,5.30
2022-09-24T02:55:01.985Z,7.63
2022-09-24T02:57:29.020Z,8.43
2022-09-24T02:59:55.918Z,5.20
2022-09-24T03:02:23.040Z,7.63
2022-09-24T03:04:50.884Z,6.85
2022-09-24T03:07:18.188Z,6.18
2022-09-24T03:09:45.300Z,9.40
2022-09-24T03:12:12.665Z,8.60
2022-09-24T03:14:39.601Z,7.20
2022-09-24T03:17:06.531Z,7.22
2022-09-24T03:19:33.491Z,6.22
2022-09-24T03:22:00.429Z,7.43
2022-09-24T03:24:27.307Z,5.30
2022-09-24T03:26:54.260Z,8.82
2022-09-24T03:29:41.216Z,9.20
2022-09-24T03:32:08.102Z,6.20
2022-09-24T03:34:34.988Z,10.02
2022-09-24T03:37:02.141Z,7.47
2022-09-24T03:39:29.267Z,6.72
2022-09-24T03:41:56.381Z,6.15
2022-09-24T03:44:23.359Z,7.07
2022-09-24T03:46:50.388Z,7.03
2022-09-24T03:49:17.792Z,9.55
2022-09-24T03:51:44.666Z,6.00
2022-09-24T03:54:12.303Z,6.22
2022-09-24T03:56:39.244Z,6.75
2022-09-24T03:59:06.220Z,8.70
2022-09-24T04:01:35.317Z,5.80
2022-09-24T04:04:02.304Z,6.40
2022-09-24T04:06:29.253Z,5.25
2022-09-24T04:08:56.614Z,5.30
2022-09-24T04:11:24.789Z,9.90
2022-09-24T04:13:52.212Z,7.13
2022-09-24T04:16:19.317Z,8.30
2022-09-24T04:18:48.001Z,7.95
2022-09-24T04:21:14.954Z,6.22
2022-09-24T04:23:41.917Z,9.57
2022-09-24T04:26:09.350Z,5.38
2022-09-24T04:28:36.366Z,5.85
2022-09-24T04:31:03.371Z,6.22
2022-09-24T04:33:30.383Z,5.57
2022-09-24T04:35:57.317Z,7.05
2022-09-24T04:38:24.233Z,6.13
2022-09-24T04:40:51.177Z,9.25
2022-09-24T04:43:19.370Z,7.88
2022-09-24T04:45:46.998Z,7.30
2022-09-24T04:48:14.302Z,11.68
2022-09-24T04:50:45.816Z,7.50
2022-09-24T04:55:41.608Z,9.68
2022-09-24T04:58:09.422Z,6.88
2022-09-24T05:00:36.690Z,6.82
2022-09-24T05:03:03.868Z,6.97
2022-09-24T05:05:32.750Z,8.15
2022-09-24T05:08:01.396Z,7.15
2022-09-24T05:10:31.480Z,8.00
2022-09-24T05:12:58.482Z,8.45
2022-09-24T05:15:25.456Z,7.35
2022-09-24T05:17:52.399Z,10.02
2022-09-24T05:20:19.423Z,7.60
2022-09-24T05:22:49.497Z,10.48
2022-09-24T05:25:18.998Z,9.95
2022-09-24T05:27:54.503Z,10.82
2022-09-24T05:30:24.740Z,8.95
2022-09-24T05:32:52.466Z,14.82
2022-09-24T05:35:22.956Z,11.95
2022-09-24T05:37:53.100Z,11.07
2022-09-24T05:40:38.377Z,10.18
2022-09-24T05:43:05.564Z,11.45
2022-09-24T05:45:32.784Z,10.43
2022-09-24T05:48:02.760Z,12.77
2022-09-24T05:50:29.633Z,8.25
2022-09-24T05:52:57.115Z,8.60
2022-09-24T05:55:26.675Z,9.07
2022-09-24T05:57:55.759Z,9.25
2022-09-24T06:00:22.751Z,10.23
2022-09-24T06:02:50.801Z,7.13
2022-09-24T06:05:17.734Z,9.07
2022-09-24T06:07:44.617Z,10.05
2022-09-24T06:10:11.743Z,8.25
2022-09-24T06:12:38.644Z,7.82
2022-09-24T06:15:06.173Z,9.88
2022-09-24T06:17:33.046Z,8.15
2022-09-24T06:19:59.924Z,11.15
2022-09-24T06:22:29.032Z,13.02
2022-09-24T06:24:56.160Z,15.40
2022-09-24T06:27:23.073Z,12.20
2022-09-24T06:29:50.240Z,9.88
2022-09-24T06:32:19.634Z,12.95
2022-09-24T06:34:51.652Z,11.48
2022-09-24T06:37:20.304Z,10.10
2022-09-24T06:39:47.401Z,40.10
2022-09-24T06:42:14.409Z,21.90
2022-09-24T06:44:42.276Z,16.42
2022-09-24T06:47:09.199Z,10.32
2022-09-24T06:49:36.663Z,18.45
2022-09-24T06:52:04.440Z,9.45
2022-09-24T06:54:31.402Z,12.80
2022-09-24T06:56:58.450Z,7.95
2022-09-24T06:59:26.178Z,9.75
2022-09-24T07:01:53.330Z,11.30
2022-09-24T07:04:20.399Z,10.15
2022-09-24T07:07:06.198Z,5.95
2022-09-24T07:09:33.307Z,14.27
2022-09-24T07:12:04.727Z,8.82
2022-09-24T07:14:31.601Z,9.30
2022-09-24T07:16:58.603Z,11.05
2022-09-24T07:19:25.485Z,9.70
2022-09-24T07:21:52.410Z,8.95
2022-09-24T07:24:19.465Z,7.88
2022-09-24T07:26:46.744Z,13.85
2022-09-24T07:29:13.622Z,12.30
2022-09-24T07:31:40.667Z,12.60
2022-09-24T07:34:09.036Z,10.68
2022-09-24T07:36:36.365Z,10.68
2022-09-24T07:39:05.278Z,9.98
2022-09-24T07:41:33.027Z,9.05
2022-09-24T07:44:00.695Z,11.52
2022-09-24T07:46:27.903Z,9.60
2022-09-24T07:48:56.309Z,8.90
2022-09-24T07:51:28.513Z,7.72
2022-09-24T07:53:56.752Z,10.57
2022-09-24T07:56:25.139Z,10.05
2022-09-24T07:58:53.212Z,11.35
2022-09-24T08:01:21.100Z,9.63
2022-09-24T08:03:48.646Z,9.65
2022-09-24T08:06:16.037Z,9.95
2022-09-24T08:08:43.504Z,8.15
2022-09-24T08:11:13.541Z,9.20
2022-09-24T08:13:40.746Z,11.57
2022-09-24T08:16:08.382Z,10.88
2022-09-24T08:18:35.702Z,10.90
2022-09-24T08:21:09.541Z,10.65
2022-09-24T08:23:40.226Z,13.00
2022-09-24T08:26:08.408Z,9.18
2022-09-24T08:28:35.951Z,9.70
2022-09-24T08:31:09.167Z,10.15
2022-09-24T08:33:37.771Z,11.90
2022-09-24T08:36:09.170Z,11.10
2022-09-24T08:38:36.474Z,17.95
2022-09-24T08:41:12.651Z,12.45
2022-09-24T08:44:05.853Z,15.05
2022-09-24T08:47:11.893Z,9.15
2022-09-24T08:49:45.542Z,8.38
2022-09-24T08:52:37.381Z,10.70
2022-09-24T08:55:14.391Z,11.95
2022-09-24T08:57:56.167Z,18.05
2022-09-24T09:00:24.112Z,8.30
2022-09-24T09:03:14.797Z,12.15
2022-09-24T09:06:04.323Z,10.15
2022-09-24T09:09:07.908Z,10.88
2022-09-24T09:11:37.951Z,12.85
2022-09-24T09:14:17.698Z,15.23
2022-09-24T09:16:56.980Z,13.23
2022-09-24T09:19:30.888Z,11.70
2022-09-24T09:22:06.003Z,11.30
2022-09-24T09:24:49.884Z,13.77
2022-09-24T09:27:19.973Z,11.77
2022-09-24T09:29:57.481Z,14.73
2022-09-24T09:33:06.179Z,14.57
2022-09-24T09:36:03.404Z,11.65
2022-09-24T09:39:06.853Z,8.07
2022-09-24T09:41:47.522Z,11.05
2022-09-24T09:44:28.194Z,14.90
2022-09-24T09:47:25.533Z,10.98
2022-09-24T09:49:58.560Z,10.82
2022-09-24T09:52:29.443Z,11.30
2022-09-24T09:54:56.730Z,13.83
2022-09-24T09:57:26.009Z,12.40
2022-09-24T09:59:55.402Z,11.10
2022-09-24T10:02:31.758Z,9.80
2022-09-24T10:05:01.651Z,10.48
2022-09-24T10:07:28.751Z,12.50
2022-09-24T10:10:25.848Z,7.82
2022-09-24T10:13:13.856Z,9.35
2022-09-24T10:16:00.540Z,8.90
2022-09-24T10:18:36.077Z,10.40
2022-09-24T10:21:10.037Z,8.52
2022-09-24T10:23:43.229Z,9.20
2022-09-24T10:26:11.099Z,12.68
2022-09-24T10:29:04.689Z,11.85
2022-09-24T10:31:35.765Z,10.23
2022-09-24T10:34:05.273Z,12.65
2022-09-24T10:36:32.865Z,8.65
2022-09-24T10:39:14.398Z,10.35
2022-09-24T10:41:48.964Z,9.82
2022-09-24T10:44:17.086Z,9.63
2022-09-24T10:47:40.503Z,8.50
2022-09-24T10:51:16.623Z,6.82
2022-09-24T10:53:57.460Z,8.35
2022-09-24T10:56:46.592Z,9.23
2022-09-24T10:59:26.082Z,12.02
2022-09-24T11:02:13.450Z,8.95
2022-09-24T11:04:58.728Z,10.13
2022-09-24T11:07:55.124Z,9.73
2022-09-24T11:10:51.408Z,11.43
2022-09-24T11:13:49.140Z,8.55
2022-09-24T11:16:51.881Z,10.25
2022-09-24T11:19:46.510Z,12.30
2022-09-24T11:22:52.558Z,11.77
2022-09-24T11:26:01.745Z,9.13
2022-09-24T11:29:07.782Z,19.02
2022-09-24T11:31:58.094Z,11.20
2022-09-24T11:35:13.987Z,9.65
2022-09-24T11:38:15.366Z,11.57
2022-09-24T11:41:21.498Z,12.02
2022-09-24T11:44:17.476Z,9.10
2022-09-24T11:47:02.393Z,10.82
2022-09-24T11:50:01.829Z,17.77
2022-09-24T11:52:40.431Z,9.70
2022-09-24T11:55:42.466Z,15.80
2022-09-24T11:58:31.314Z,8.90
2022-09-24T12:01:09.946Z,11.32
2022-09-24T12:04:13.939Z,12.63
2022-09-24T12:07:04.025Z,12.55
2022-09-24T12:09:56.974Z,8.65
2022-09-24T12:12:31.979Z,7.38
2022-09-24T12:15:03.938Z,11.18
2022-09-24T12:20:21.834Z,5.75
2022-09-24T12:22:55.887Z,8.40
2022-09-24T12:25:22.848Z,9.63
2022-09-24T12:27:50.212Z,9.77
2022-09-24T12:30:58.797Z,8.40
2022-09-24T12:33:45.684Z,8.63
2022-09-24T12:36:38.255Z,8.55
2022-09-24T12:39:13.151Z,10.82
2022-09-24T12:41:45.351Z,8.82
2022-09-24T12:44:18.415Z,5.28
2022-09-24T12:46:55.181Z,8.60
2022-09-24T12:49:25.162Z,9.25
2022-09-24T12:51:55.150Z,7.97
2022-09-24T12:54:36.262Z,5.18
2022-09-24T12:57:26.377Z,6.77
2022-09-24T13:00:01.119Z,5.22
2022-09-24T13:02:33.618Z,9.10
2022-09-24T13:05:03.480Z,8.15
2022-09-24T13:07:37.162Z,4.35
2022-09-24T13:10:17.996Z,4.93
2022-09-24T13:12:46.589Z,6.30
2022-09-24T13:15:38.803Z,4.15
2022-09-24T13:20:49.294Z,5.25
2022-09-24T13:23:22.713Z,6.05
2022-09-24T13:26:00.300Z,3.92
2022-09-24T13:28:38.351Z,7.07
2022-09-24T13:31:19.276Z,3.20
2022-09-24T13:33:51.556Z,3.55
2022-09-24T13:36:27.818Z,3.28
2022-09-24T13:39:26.859Z,6.78
2022-09-24T13:42:15.006Z,4.07
2022-09-24T13:45:05.009Z,4.30
2022-09-24T13:47:43.293Z,4.00
2022-09-24T13:50:34.615Z,5.18
2022-09-24T13:53:27.705Z,3.05
2022-09-24T13:55:59.290Z,6.28
2022-09-24T13:58:38.683Z,4.50
2022-09-24T14:01:39.255Z,8.02
2022-09-24T14:04:20.658Z,4.45
2022-09-24T14:06:57.570Z,4.53
2022-09-24T14:09:36.276Z,6.57
2022-09-24T14:12:16.613Z,3.58
2022-09-24T14:14:47.395Z,5.05
2022-09-24T14:17:15.478Z,7.13
2022-09-24T14:19:43.076Z,5.72
2022-09-24T14:22:35.322Z,7.57
2022-09-24T14:28:01.981Z,6.32
2022-09-24T14:30:32.492Z,4.85
2022-09-24T14:33:13.721Z,5.97
2022-09-24T14:35:46.591Z,6.28
2022-09-24T14:38:44.837Z,6.13
2022-09-24T14:41:21.624Z,8.80
2022-09-24T14:43:56.230Z,7.22
2022-09-24T14:46:31.807Z,7.40
2022-09-24T14:49:17.547Z,9.32
2022-09-24T14:51:56.196Z,6.47
2022-09-24T14:54:40.463Z,7.10
2022-09-24T14:57:17.760Z,9.20
2022-09-24T14:59:46.670Z,9.98
2022-09-24T15:02:28.923Z,8.93
2022-09-24T15:05:04.978Z,15.35
2022-09-24T15:07:35.049Z,7.93
2022-09-24T15:10:05.492Z,7.18
2022-09-24T15:12:35.836Z,12.70
2022-09-24T15:15:30.680Z,13.27
2022-09-24T15:17:58.189Z,8.85
2022-09-24T15:20:25.120Z,11.13
2022-09-24T15:22:52.113Z,10.18
2022-09-24T15:25:19.126Z,14.15
2022-09-24T15:27:46.217Z,20.38
2022-09-24T15:30:20.348Z,16.50
2022-09-24T15:32:50.186Z,15.32
2022-09-24T15:35:17.652Z,20.60
2022-09-24T15:37:45.119Z,24.80
2022-09-24T15:40:22.673Z,22.92
2022-09-24T15:42:51.033Z,17.75
2022-09-24T15:45:23.938Z,16.70
2022-09-24T15:47:52.447Z,14.80
2022-09-24T15:50:21.598Z,19.63
2022-09-24T15:52:57.160Z,21.33
2022-09-24T15:55:24.343Z,22.50
2022-09-24T15:57:51.808Z,22.63
2022-09-24T16:00:23.125Z,17.23
2022-09-24T16:02:54.329Z,20.10
2022-09-24T16:05:21.886Z,21.40
2022-09-24T16:07:49.327Z,19.70
2022-09-24T16:10:16.936Z,19.83
2022-09-24T16:12:44.004Z,20.73
2022-09-24T16:15:16.040Z,23.10
2022-09-24T16:20:11.156Z,17.95
2022-09-24T16:22:38.442Z,26.92
2022-09-24T16:25:06.069Z,22.83
2022-09-24T16:27:35.270Z,20.50
2022-09-24T16:30:02.955Z,30.95
2022-09-24T16:32:29.918Z,22.63
2022-09-24T16:34:56.962Z,18.73
2022-09-24T16:37:24.955Z,23.48
2022-09-24T16:39:56.110Z,18.38
2022-09-24T16:42:26.212Z,16.77
2022-09-24T16:44:53.186Z,14.32
2022-09-24T16:47:20.661Z,15.30
2022-09-24T16:49:48.236Z,15.85
2022-09-24T16:52:15.130Z,12.63
2022-09-24T16:54:42.182Z,19.63
2022-09-24T16:57:09.184Z,15.70
2022-09-24T16:59:36.275Z,13.55
2022-09-24T17:02:03.827Z,15.43
2022-09-24T17:04:30.882Z,18.60
2022-09-24T17:06:58.275Z,12.50
2022-09-24T17:09:44.172Z,8.48
2022-09-24T17:12:11.167Z,7.85
2022-09-24T17:14:38.702Z,7.15
2022-09-24T17:17:06.696Z,7.82
2022-09-24T17:19:33.571Z,9.63
2022-09-24T17:22:00.543Z,5.20
2022-09-24T17:24:27.678Z,7.38
2022-09-24T17:26:56.495Z,6.25
2022-09-24T17:29:28.987Z,5.93
2022-09-24T17:31:58.444Z,4.78
2022-09-24T17:34:25.928Z,6.35
2022-09-24T17:36:55.307Z,9.25
2022-09-24T17:39:22.414Z,14.13
2022-09-24T17:41:49.354Z,9.18
2022-09-24T17:44:19.441Z,8.73
2022-09-24T17:46:46.575Z,5.57
2022-09-24T17:49:13.743Z,9.65
2022-09-24T17:51:40.676Z,8.65
2022-09-24T17:54:18.861Z,8.10
2022-09-24T17:56:45.840Z,8.32
2022-09-24T17:59:14.288Z,7.97
2022-09-24T18:01:43.577Z,7.43
2022-09-24T18:04:18.211Z,5.18
2022-09-24T18:06:46.690Z,5.75
2022-09-24T18:09:15.466Z,7.47
2022-09-24T18:11:49.097Z,8.05
2022-09-24T18:14:19.891Z,7.03
2022-09-24T18:16:47.897Z,10.30
2022-09-24T18:19:17.236Z,9.75
2022-09-24T18:21:45.480Z,7.03
2022-09-24T18:24:12.688Z,10.52
2022-09-24T18:26:40.380Z,9.63
2022-09-24T18:29:16.455Z,10.00
2022-09-24T18:31:44.024Z,9.60
2022-09-24T18:34:14.772Z,13.18
2022-09-24T18:36:43.939Z,10.23
2022-09-24T18:39:17.627Z,11.35
2022-09-24T18:41:47.313Z,10.65
2022-09-24T18:44:14.277Z,11.68
2022-09-24T18:46:41.960Z,14.48
2022-09-24T18:49:11.288Z,12.30
2022-09-24T18:51:38.624Z,10.15
2022-09-24T18:54:18.056Z,7.10
2022-09-24T18:56:45.971Z,6.60
2022-09-24T18:59:17.539Z,6.10
2022-09-24T19:04:14.163Z,5.63
2022-09-24T19:06:44.677Z,5.47
2022-09-24T19:09:17.139Z,5.53
2022-09-24T19:11:45.456Z,5.68
2022-09-24T19:14:14.903Z,3.85
2022-09-24T19:16:41.810Z,5.15
2022-09-24T19:19:11.133Z,6.00
2022-09-24T19:21:39.052Z,3.97
2022-09-24T19:24:06.852Z,4.13
2022-09-24T19:26:36.329Z,5.25
2022-09-24T19:29:05.226Z,4.57
2022-09-24T19:31:38.514Z,4.90
2022-09-24T19:34:08.152Z,6.90
2022-09-24T19:36:43.636Z,4.00
2022-09-24T19:39:18.437Z,4.10
2022-09-24T19:41:45.759Z,4.22
2022-09-24T19:44:13.502Z,5.35
2022-09-24T19:46:41.551Z,5.32
2022-09-24T19:49:09.338Z,4.65
2022-09-24T19:51:36.977Z,6.93
2022-09-24T19:54:07.025Z,6.55
2022-09-24T19:56:35.343Z,4.35
2022-09-24T19:59:03.135Z,5.05
2022-09-24T20:01:32.423Z,5.45
2022-09-24T20:04:04.017Z,3.83
2022-09-24T20:06:33.792Z,4.47
2022-09-24T20:09:01.154Z,6.53
2022-09-24T20:11:29.326Z,6.65
2022-09-24T20:13:56.816Z,10.10
2022-09-24T20:16:26.881Z,10.00
2022-09-24T20:18:57.704Z,6.82
2022-09-24T20:21:34.824Z,7.28
2022-09-24T20:24:03.586Z,7.85
2022-09-24T20:26:49.735Z,6.22
2022-09-24T20:29:19.593Z,5.75
2022-09-24T20:31:52.840Z,6.30
2022-09-24T20:34:31.657Z,7.53
2022-09-24T20:37:01.291Z,5.90
2022-09-24T20:39:29.332Z,5.15
2022-09-24T20:41:59.867Z,7.95
2022-09-24T20:44:26.852Z,6.55
2022-09-24T20:46:53.765Z,7.28
2022-09-24T20:49:23.014Z,7.53
2022-09-24T20:51:56.195Z,11.10
2022-09-24T20:54:25.864Z,9.98
2022-09-24T20:56:52.803Z,11.73
2022-09-24T20:59:19.904Z,8.07
2022-09-24T21:01:48.120Z,9.18
2022-09-24T21:04:15.127Z,11.02
2022-09-24T21:06:42.160Z,9.10
2022-09-24T21:09:13.386Z,10.25
2022-09-24T21:11:41.818Z,9.98
2022-09-24T21:14:11.430Z,11.73
2022-09-24T21:16:39.848Z,9.52
2022-09-24T21:19:07.930Z,11.88
2022-09-24T21:21:38.305Z,11.60
2022-09-24T21:24:09.772Z,10.07
2022-09-24T21:26:39.126Z,10.70
2022-09-24T21:29:16.917Z,10.43
2022-09-24T21:31:46.102Z,12.13
2022-09-24T21:34:16.196Z,9.88
2022-09-24T21:36:47.888Z,11.93
2022-09-24T21:39:23.699Z,12.10
2022-09-24T21:41:52.977Z,15.07
2022-09-24T21:44:20.205Z,12.45
2022-09-24T21:46:49.211Z,14.18
2022-09-24T21:49:17.165Z,18.73
2022-09-24T21:51:45.482Z,17.00
2022-09-24T21:54:17.975Z,14.75
2022-09-24T21:56:46.357Z,9.52
2022-09-24T21:59:32.824Z,8.15
2022-09-24T22:02:00.239Z,7.38
2022-09-24T22:04:27.826Z,6.13
2022-09-24T22:06:54.710Z,8.63
2022-09-24T22:09:22.285Z,9.95
2022-09-24T22:11:49.305Z,5.90
2022-09-24T22:14:16.754Z,7.20
2022-09-24T22:16:43.842Z,6.70
2022-09-24T22:19:10.783Z,7.30
2022-09-24T22:21:37.880Z,10.15
2022-09-24T22:24:05.844Z,7.93
2022-09-24T22:26:33.206Z,7.45
2022-09-24T22:29:00.887Z,10.82
2022-09-24T22:31:28.203Z,10.52
2022-09-24T22:34:13.959Z,10.13
2022-09-24T22:36:41.057Z,13.57
2022-09-24T22:39:08.836Z,10.52
2022-09-24T22:41:42.940Z,11.05
2022-09-24T22:44:11.846Z,12.85
2022-09-24T22:46:39.554Z,12.25
2022-09-24T22:49:06.752Z,11.75
2022-09-24T22:51:34.170Z,11.50
2022-09-24T22:54:01.318Z,12.05
2022-09-24T22:56:29.931Z,13.57
2022-09-24T22:58:59.797Z,13.52
2022-09-24T23:01:31.269Z,12.23
2022-09-24T23:03:59.774Z,14.45
2022-09-24T23:06:27.575Z,14.25
2022-09-24T23:08:55.313Z,14.70
2022-09-24T23:11:34.290Z,18.95
2022-09-24T23:14:04.953Z,19.90
2022-09-24T23:16:35.744Z,21.83
2022-09-24T23:19:06.140Z,25.95
2022-09-24T23:21:34.186Z,24.60
2022-09-24T23:24:08.171Z,23.45
2022-09-24T23:26:35.162Z,24.55
2022-09-24T23:29:02.229Z,19.58
2022-09-24T23:31:33.036Z,19.33
2022-09-24T23:34:01.273Z,25.23
2022-09-24T23:36:31.110Z,16.95
2022-09-24T23:38:59.725Z,19.13
2022-09-24T23:41:28.206Z,14.45
2022-09-24T23:43:55.250Z,17.00
2022-09-24T23:46:22.300Z,19.20
2022-09-24T23:48:49.221Z,14.35
2022-09-24T23:51:16.127Z,20.60
2022-09-24T23:53:43.055Z,12.75
2022-09-24T23:56:11.356Z,16.10
2022-09-24T23:58:38.258Z,18.08
